logo
Rechercher aéroport 
image banner adimage banner adimage banner ad
image banner ad

EPPT - Piotrkow Trybunalski

Situé à , Poland

ICAO - EPPT, IATA -

Données fournies par Airmate  

Information générale

Coordonnées: N51°22'57" E19°41'19"
Élévation : 673 feet MSL.
Variation magnétique : 4.0000° East
Voir autres Aéroports à Lodz

Données opérationnelles

Special qualification required
Heure actuelle UTC:
Heure actuelle locale:
Météo à : EPTM - Tomaszow Mazowiecki ( 36 km )
TAF: TAF EPTM 231100Z 2312/2324 20008KT 9999 SCT015 BKN040 PROB30 TEMPO 2312/2324 4000 RA BR SCT006 BKN012 BECMG 2314/2316 13006KT
Voir NOTAMs / SUP AIP / TFR affectant cet aéroport [VIEW]
Fréquences de communication: [VIEW]

Pistes:

Identifiant RWYQFULongueur (ft)Largeur (ft)SurfaceLDA (ft)
03R33°2822164GRASS2822
21L213°2822164GRASS2822
03L33°311759CONC+ASPH3117
21R213°311759CONC+ASPH3117

Coordonnées de l'aéroport

Adresse: Poland

Autres services d'aviation

Écoles de pilotage

Celier Aviation Sp. Z O.O

Celier Aviation Sp. Z O.O

Vue satellite de EPPT